• Join FlightAware (Why Join?)
  • Login
  • US Flag 
03:11PM EST


 

Airport Tracker/Info


-or-


 

Live Flight TrackerFlight Track Log ✈ DAL695 ✈ 03-Jun-2013 ✈ KMCO - KJFK

Flight Track Log - Related Links

Times and Time Zones

All times are in EDT time to prevent confusion due to time zone crossing. See the DAL695 flight status page for this flight to view local times or setup timezone preferences in your user account.

Time Position Orientation Groundspeed Altitude Reporting Facility
EDT Latitude Longitude Course Direction KTS MPH feet Rate Location/Type
03:03PM 28.4000 -81.3000 North 172 198 700  Level Orlando TRACON
03:05PM 28.3333 -81.2500 147° Southeast 240 276 3,100 1,980 Climbing Orlando TRACON
03:06PM 28.7744 -81.3500 North  Level FlightAware Approximate
03:06PM 28.3333 -81.1833 90° East 261 300 5,500  Level Orlando TRACON
03:07PM 28.8967 -81.3563 355° North  Level FlightAware Approximate
03:07PM 28.4167 -81.1833 360° North 303 349 7,600  Level Orlando TRACON
03:08PM 29.0185 -81.3704 350° North  Level FlightAware Approximate
03:08PM 28.4833 -81.2000 348° North 293 337 9,900  Level Orlando TRACON
03:09PM 29.1401 -81.3833 North  Level FlightAware Approximate
03:09PM 28.5667 -81.2333 341° North 306 352 12,100  Level Orlando TRACON
03:10PM 28.6842 -81.2619 348° North 306 352 15,100 1,920 Climbing Jacksonville Center
03:11PM 28.7722 -81.2892 345° North 312 359 16,900 1,200 Climbing Jacksonville Center
03:12PM 28.8686 -81.3158 346° North 331 381 17,600 660 Climbing Jacksonville Center
03:13PM 28.9756 -81.3547 342° North 365 420 18,300 1,080 Climbing Jacksonville Center
03:14PM 29.0886 -81.3861 346° North 393 452 19,800 1,500 Climbing Jacksonville Center
03:15PM 29.2078 -81.4008 354° North 414 476 21,300 1,380 Climbing Jacksonville Center
03:16PM 29.3331 -81.4156 354° North 435 501 22,600 1,260 Climbing Jacksonville Center
03:17PM 29.4689 -81.4256 356° North 446 513 23,900 1,200 Climbing Jacksonville Center
03:18PM 29.5964 -81.4403 354° North 446 513 25,000 960 Climbing Jacksonville Center
03:19PM 29.7281 -81.4361 North 451 519 25,900 900 Climbing Jacksonville Center
03:20PM 29.8572 -81.4244 North 457 526 26,800 780 Climbing Jacksonville Center
03:21PM 29.9886 -81.4106 North 464 534 27,500 660 Climbing Jacksonville Center
03:22PM 30.1242 -81.3964 North 471 542 28,200 1,140 Climbing Jacksonville Center
03:23PM 30.2556 -81.3825 North 477 549 29,800 1,320 Climbing Jacksonville Center
03:24PM 30.3847 -81.3708 North 477 549 30,900 900 Climbing Jacksonville Center
03:25PM 30.5142 -81.3592 North 471 542 31,600 660 Climbing Jacksonville Center
03:26PM 30.6433 -81.3472 North 466 536 32,300 540 Climbing Jacksonville Center
03:27PM 30.7706 -81.3356 North 460 529 32,700 300 Climbing Jacksonville Center
03:28PM 30.9000 -81.3236 North 460 529 33,000 120 Climbing Jacksonville Center
03:29PM 31.0314 -81.3119 North 465 535 33,000  Level Jacksonville Center
03:30PM 31.1647 -81.2975 North 465 535 33,000  Level Jacksonville Center
03:31PM 31.2961 -81.2831 North 465 535 33,000  Level Jacksonville Center
03:32PM 31.4128 -81.2714 North 465 535 33,000 300 Level Jacksonville Center
03:33PM 31.5567 -81.2592 North 471 542 33,600 600 Climbing Jacksonville Center
03:34PM 31.6778 -81.2472 North 471 542 34,200 600 Climbing Jacksonville Center
03:35PM 31.8217 -81.2325 North 471 542 34,800 360 Climbing Jacksonville Center
03:36PM 31.9531 -81.2203 North 476 548 35,000  Climbing Jacksonville Center
03:37PM 32.0864 -81.2031 North 476 548 34,900 -60 Descending Jacksonville Center
03:38PM 32.2150 -81.1492 20° North 482 555 34,900  Level Jacksonville Center
03:39PM 32.3331 -81.0683 30° Northeast 482 555 35,000  Climbing Jacksonville Center
03:40PM 32.4506 -80.9822 32° Northeast 500 575 35,000 -60 Level Jacksonville Center
03:41PM 32.5661 -80.8958 32° Northeast 485 558 34,900  Descending Jacksonville Center
03:42PM 32.6839 -80.8119 31° Northeast 494 568 35,000  Climbing Jacksonville Center
03:43PM 32.8014 -80.7278 31° Northeast 489 563 35,000 -60 Level Jacksonville Center
03:44PM 32.9169 -80.6431 32° Northeast 489 563 34,900 -60 Descending Jacksonville Center
03:45PM 33.0383 -80.5533 32° Northeast 494 568 34,900  Level Jacksonville Center
03:46PM 33.1558 -80.4686 31° Northeast 494 568 34,900  Level Jacksonville Center
03:47PM 33.2600 -80.3539 43° Northeast 494 568 35,000  Climbing Jacksonville Center
03:48PM 33.3433 -80.2444 48° Northeast 494 568 35,000 -60 Level Jacksonville Center
03:49PM 33.4367 -80.1247 47° Northeast 494 568 34,900  Descending Jacksonville Center
03:50PM 33.5278 -80.0050 48° Northeast 489 563 35,000  Climbing Jacksonville Center
03:51PM 33.6189 -79.8847 48° Northeast 484 557 34,900  Descending Jacksonville Center
03:52PM 33.7122 -79.7667 46° Northeast 479 551 35,000  Climbing Jacksonville Center
03:53PM 33.8011 -79.6511 47° Northeast 479 551 35,000  Level Jacksonville Center
03:54PM 33.8919 -79.5325 47° Northeast 479 551 35,000  Level Jacksonville Center
03:55PM 33.9864 -79.4089 47° Northeast 479 551 35,000 -60 Level Jacksonville Center
03:56PM 34.0811 -79.2847 47° Northeast 474 545 34,900  Descending Jacksonville Center
03:58PM 34.2508 -79.0617 47° Northeast 474 545 35,000  Climbing Washington Center
03:59PM 34.3461 -78.9397 47° Northeast 480 552 35,000 -60 Level Washington Center
04:00PM 34.4414 -78.8153 47° Northeast 485 558 34,900  Descending Washington Center
04:01PM 34.5453 -78.6731 48° Northeast 495 570 35,000  Climbing Washington Center
04:02PM 34.6272 -78.5628 48° Northeast 500 575 35,000  Level Washington Center
04:03PM 34.7308 -78.4275 47° Northeast 500 575 35,000 -60 Level Washington Center
04:04PM 34.8233 -78.3067 47° Northeast 500 575 34,900  Descending Washington Center
04:05PM 34.9194 -78.2086 40° Northeast 493 567 35,000  Climbing Washington Center
04:06PM 35.0389 -78.0881 40° Northeast 499 574 35,000  Level Washington Center
04:07PM 35.1475 -77.9822 39° Northeast 504 580 35,000  Level Washington Center
04:08PM 35.2539 -77.8761 39° Northeast 504 580 35,000  Level Washington Center
04:09PM 35.3644 -77.7647 39° Northeast 504 580 35,000  Level Washington Center
04:10PM 35.4728 -77.6578 39° Northeast 504 580 35,000  Level Washington Center
04:11PM 35.5808 -77.5508 39° Northeast 504 580 35,000  Level Washington Center
04:12PM 35.6889 -77.4411 40° Northeast 504 580 35,000  Level Washington Center
04:13PM 35.7992 -77.3361 38° Northeast 504 580 35,000  Level Washington Center
04:14PM 35.9072 -77.2231 40° Northeast 504 580 35,000 120 Level Washington Center
04:15PM 35.9981 -77.1247 41° Northeast 504 580 35,300 360 Climbing Washington Center
04:16PM 36.1058 -77.0136 40° Northeast 496 571 35,800 600 Climbing Washington Center
04:17PM 36.2156 -76.9025 39° Northeast 496 571 36,600 540 Climbing Washington Center
04:18PM 36.3314 -76.8089 33° Northeast 501 577 36,900 180 Climbing Washington Center
04:19PM 36.4511 -76.7178 31° Northeast 501 577 37,000  Climbing Washington Center
04:20PM 36.5750 -76.6264 31° Northeast 501 577 37,000  Level Washington Center
04:21PM 36.6947 -76.5322 32° Northeast 506 582 37,000  Level Washington Center
04:22PM 36.8083 -76.4272 36° Northeast 506 582 37,000  Level Washington Center
04:23PM 36.9175 -76.3089 41° Northeast 506 582 37,000  Level Washington Center
04:24PM 37.0350 -76.1747 42° Northeast 513 590 37,000  Level Washington Center
04:25PM 37.1378 -76.0714 39° Northeast 518 596 37,000  Level Washington Center
04:26PM 37.2550 -75.9675 35° Northeast 518 596 37,000  Level Washington Center
04:27PM 37.3844 -75.8872 26° Northeast 513 590 37,000 -60 Level Washington Center
04:28PM 37.5222 -75.8014 26° Northeast 503 579 36,900 -60 Descending Washington Center
04:29PM 37.6497 -75.7256 25° Northeast 503 579 36,900  Level Washington Center
04:30PM 37.7789 -75.6444 26° Northeast 503 579 36,900  Level Washington Center
04:31PM 37.9061 -75.5656 26° Northeast 503 579 36,900  Level Washington Center
04:32PM 38.0356 -75.4811 27° Northeast 503 579 36,900  Level Washington Center
04:33PM 38.1667 -75.4042 25° Northeast 508 585 37,000  Climbing Washington Center
04:34PM 38.2958 -75.3192 27° Northeast 508 585 37,000  Level Washington Center
04:35PM 38.4125 -75.2367 29° Northeast 514 592 37,000  Level Washington Center
04:36PM 38.5414 -75.1589 25° Northeast 514 592 37,000 -60 Level Washington Center
04:37PM 38.6703 -75.0731 27° Northeast 514 592 36,900 -120 Descending Washington Center
04:38PM 38.7992 -74.9950 25° Northeast 509 586 36,800 -1,260 Descending Washington Center
04:39PM 38.9281 -74.9111 27° Northeast 509 586 34,400 -2,640 Descending Washington Center
04:40PM 39.0589 -74.8244 27° Northeast 509 586 31,500 -3,060 Descending Washington Center
04:41PM 39.1747 -74.7161 36° Northeast 515 593 28,200 -3,120 Descending Washington Center
04:42PM 39.2822 -74.6022 39° Northeast 510 587 25,400 -2,460 Descending Washington Center
04:44PM 39.4419 -74.4269 40° Northeast 471 542 21,900 -2,220 Descending New York Center
04:45PM 39.5389 -74.3242 39° Northeast 452 520 19,700 -2,040 Descending New York Center
04:46PM 39.6383 -74.2106 41° Northeast 440 506 17,900 -1,620 Descending New York Center
04:47PM 39.7244 -74.1150 40° Northeast 419 482 16,500 -1,680 Descending New York Center
04:48PM 39.7969 -74.0564 32° Northeast 365 420 14,600 -1,740 Descending New York Center
04:49PM 39.8869 -74.0469 North 322 371 13,100 -1,680 Descending New York Center
04:50PM 39.9375 -73.9464 57° Northeast 291 335 11,300 -1,080 Descending New York Center
04:51PM 40.0019 -73.8736 41° Northeast 289 333 11,000 -180 Descending New York Center
04:52PM 40.0783 -73.8228 27° Northeast 296 341 11,000 -720 Level New York Center
04:53PM 40.1464 -73.7686 31° Northeast 313 360 9,600 -1,440 Descending New York Center
04:54PM 40.2272 -73.7097 29° Northeast 305 351 8,100 -1,440 Descending New York Center
04:54PM 40.2833 -73.6667 30° Northeast 289 333 7,100 -600 Descending New York TRACON
04:56PM 40.3672 -73.6067 29° Northeast 289 333 7,000 -60 Descending New York Center
04:57PM 40.4286 -73.5631 28° Northeast 284 327 7,000  Level New York Center
04:57PM 40.4833 -73.5167 33° Northeast 271 312 7,000 -720 Level New York TRACON
04:58PM 40.5500 -73.4667 30° Northeast 241 277 5,800 -1,200 Descending New York TRACON
04:59PM 40.6167 -73.4667 360° North 225 259 4,700 -1,260 Descending New York TRACON
05:00PM 40.6667 -73.4667 360° North 219 252 3,300 -900 Descending New York TRACON
05:01PM 40.7333 -73.5000 339° North 216 249 3,000 -660 Descending New York TRACON
05:02PM 40.7833 -73.5333 333° Northwest 218 251 2,000 -540 Descending New York TRACON
05:03PM 40.8167 -73.6000 303° West 208 239 2,000  Level New York TRACON